Date,TemperatureHighF,TemperatureAvgF,TemperatureLowF,DewpointHighF,DewpointAvgF,DewpointLowF,HumidityHigh,HumidityAvg,HumidityLow,PressureMaxIn,PressureMinIn,WindSpeedMaxMPH,WindSpeedAvgMPH,GustSpeedMaxMPH,PrecipitationSumIn
2013-1-2,23.2,20.7,19.2,17.0,13.6,12.0,92,88,85,30.06,29.96,6,4,0,0.00
2013-1-3,23.3,16.3,13.3,17.0,9.3,3.0,92,80,61,30.26,30.07,13,9,0,0.00
2013-1-4,32.1,24.5,16.5,17.0,14.1,12.0,85,71,54,30.12,30.01,11,6,17,0.00
2013-1-5,27.6,20.3,14.4,15.0,11.9,8.0,92,78,62,30.09,29.86,10,6,0,0.00
2013-1-6,25.5,18.8,12.9,15.0,10.2,5.0,92,75,53,30.21,30.00,11,6,0,0.00
2013-1-7,37.0,30.4,18.0,24.0,21.4,10.0,86,74,64,30.03,29.89,16,8,23,0.00
2013-1-8,35.2,30.3,23.5,28.0,22.1,0.0,100,83,74,29.98,29.76,13,7,18,0.00
2013-1-9,34.4,31.9,28.0,26.0,22.0,19.0,86,70,55,30.35,29.91,24,11,29,0.00
2013-1-10,41.6,34.8,28.1,33.0,24.2,19.0,100,74,51,30.31,29.74,18,10,21,0.00
2013-1-11,42.1,37.9,34.5,41.0,36.4,35.0,100,100,100,29.74,29.36,14,8,18,0.00
2013-1-12,40.4,17.5,5.4,37.0,8.8,-2.0,93,72,61,30.07,29.38,23,14,36,0.00
2013-1-13,10.9,6.7,2.6,1.0,-0.6,-2.0,84,75,71,30.23,30.04,12,8,0,0.00
2013-1-14,14.3,10.9,7.5,3.0,1.4,0.0,84,73,61,30.40,30.24,12,6,0,0.00
2013-1-15,30.1,21.8,11.8,17.0,11.3,5.0,85,69,50,30.28,29.87,14,7,23,0.00
2013-1-16,36.8,27.6,14.2,32.0,18.5,0.0,100,72,44,30.19,29.66,18,12,24,0.00
2013-1-17,20.8,15.3,9.7,10.0,1.9,-5.0,72,60,46,30.39,30.22,13,6,0,0.00
2013-1-18,42.3,31.0,19.2,28.0,22.4,10.0,92,76,60,30.29,29.72,16,9,21,0.00
2013-1-19,40.1,26.4,2.9,30.0,18.5,-5.0,92,77,56,30.20,29.68,34,13,48,0.00
2013-1-20,11.1,3.4,-1.3,0.0,-5.7,-9.0,71,65,46,30.40,30.21,18,11,25,0.00
2013-1-21,-2.4,-5.6,-10.2,-11.0,-14.5,-20.0,76,64,53,30.34,30.26,17,12,24,0.00
2013-1-22,7.6,-2.0,-11.4,-5.0,-12.5,-18.0,76,63,53,30.40,30.24,12,5,0,0.00
2013-1-23,16.8,8.0,-4.7,8.0,-2.6,-16.0,92,62,45,30.58,30.14,23,10,33,0.00
2013-1-24,14.8,3.9,-6.5,0.0,-9.1,-16.0,65,57,50,30.68,30.20,16,8,20,0.00
2013-1-25,20.3,14.5,6.2,10.0,3.7,-2.0,78,61,41,30.28,29.94,23,12,32,0.00
2013-1-26,25.6,15.2,3.5,10.0,3.1,-2.0,84,64,52,30.34,30.12,14,6,0,0.00
2013-1-27,35.0,30.4,24.7,32.0,21.8,10.0,100,77,54,30.12,29.80,12,8,0,0.00
2013-1-28,38.0,33.9,31.7,32.0,30.7,30.0,100,100,100,29.89,29.65,11,5,0,0.00
2013-1-29,36.3,32.6,27.8,32.0,28.5,23.0,100,93,86,29.71,29.52,18,9,26,0.00
2013-1-30,27.5,18.2,9.3,21.0,11.1,3.0,92,79,67,29.73,29.63,23,17,31,0.00
2013-1-31,8.8,2.7,-5.9,1.0,-5.3,-14.0,91,72,64,30.26,29.75,20,15,28,0.00
2013-2-1,6.9,-0.9,-8.9,1.0,-10.6,-18.0,91,75,58,30.31,30.05,12,6,0,0.00
2013-2-2,14.1,7.8,0.7,6.0,0.0,-5.0,92,79,65,30.18,29.97,9,4,0,0.00
2013-2-3,17.8,11.6,4.9,10.0,4.3,0.0,92,80,61,30.08,29.96,12,6,0,0.00
2013-2-4,19.7,12.9,5.0,10.0,2.2,-2.0,92,71,56,30.07,29.78,11,5,0,0.00
2013-2-5,29.0,23.9,16.1,24.0,16.5,8.0,100,84,62,30.08,29.65,16,8,20,0.00
2013-2-6,27.7,19.1,8.4,19.0,11.8,0.0,100,89,85,30.10,29.93,12,6,0,0.00
2013-2-7,27.6,25.8,23.5,23.0,21.1,19.0,100,92,79,30.24,29.97,16,10,23,0.00
2013-2-8,67.8,25.0,18.4,33.0,15.2,12.0,100,81,28,30.38,29.44,12,7,18,0.00
2013-2-9,34.2,29.9,25.9,28.0,24.3,21.0,100,97,92,30.22,29.95,19,13,28,0.00
2013-2-10,34.7,31.1,28.6,32.0,27.3,24.0,100,92,80,29.93,29.26,17,11,24,0.00
2013-2-11,30.1,25.8,19.7,28.0,19.9,12.0,92,79,67,30.03,29.32,21,16,29,0.00
2013-2-12,36.0,26.4,18.0,23.0,17.5,12.0,85,72,55,30.03,29.82,11,7,17,0.00
2013-2-13,41.9,31.5,23.5,33.0,22.7,0.0,100,79,60,29.80,29.55,11,4,0,0.00
2013-2-14,31.4,25.9,16.9,33.0,18.7,3.0,100,73,38,30.16,29.56,20,10,29,0.00
2013-2-15,17.9,12.4,6.9,5.0,1.5,0.0,77,63,48,30.29,30.17,17,10,20,0.00
2013-2-16,20.3,12.0,5.7,6.0,2.2,-2.0,91,71,48,30.25,30.12,6,3,0,0.00
2013-2-17,33.8,23.3,12.6,21.0,12.6,3.0,78,71,63,30.11,29.69,20,11,28,0.00
2013-2-18,35.9,25.4,9.8,30.0,18.2,3.0,86,76,67,29.77,29.52,20,12,29,0.00
2013-2-19,9.4,5.9,3.0,3.0,-3.3,-7.0,78,65,50,30.33,29.79,25,16,33,0.00
2013-2-20,18.0,8.0,-1.4,3.0,-1.9,-7.0,77,62,48,30.45,30.35,10,3,18,0.00
2013-2-21,23.7,17.1,7.1,10.0,5.3,1.0,72,63,53,30.44,30.10,13,7,23,0.00
2013-2-22,31.0,24.7,19.7,21.0,18.5,12.0,92,81,63,30.08,29.85,13,7,0,0.00
2013-2-23,35.3,27.5,22.5,21.0,19.0,17.0,92,83,68,29.95,29.84,8,5,0,0.00
2013-2-24,38.6,27.5,16.9,19.0,15.2,10.0,92,72,55,30.09,29.96,6,2,0,0.00
2013-2-25,37.5,31.7,26.8,24.0,21.5,19.0,86,71,59,30.10,30.03,6,1,0,0.00
2013-2-26,37.0,29.2,20.2,26.0,22.1,0.0,92,76,69,30.05,29.87,14,8,20,0.00
2013-2-27,39.1,31.9,28.6,26.0,24.0,23.0,80,74,60,30.01,29.86,23,13,28,0.00
2013-2-28,30.4,28.7,24.1,21.0,19.0,0.0,74,66,63,30.21,30.02,14,10,21,0.00
2013-3-1,29.9,25.2,18.0,17.0,15.1,12.0,73,64,54,30.34,30.22,12,9,23,0.00
2013-3-2,31.4,21.7,10.7,12.0,8.4,5.0,92,61,33,30.35,30.18,6,3,0,0.00
2013-3-3,34.5,27.9,21.1,12.0,9.6,0.0,72,50,39,30.17,29.98,14,8,21,0.00
2013-3-4,29.8,27.0,24.1,24.0,17.3,10.0,100,71,46,30.03,29.94,17,12,0,0.00
2013-3-5,31.9,26.7,22.0,24.0,22.4,17.0,100,87,68,30.28,29.97,14,9,25,0.00
2013-3-6,28.6,23.6,19.4,19.0,15.7,0.0,85,73,63,30.41,30.30,11,6,0,0.00
2013-3-7,34.4,25.4,15.9,17.0,13.5,8.0,92,73,58,30.38,30.28,12,5,0,0.00
2013-3-8,39.7,31.3,21.5,28.0,22.0,15.0,92,76,68,30.32,30.11,13,7,0,0.00
2013-3-9,37.7,35.8,33.0,35.0,33.6,28.0,100,93,74,30.08,29.71,12,7,0,0.00
2013-3-10,34.7,32.7,29.9,35.0,29.2,24.0,100,82,74,29.93,29.78,20,15,27,0.00
2013-3-11,31.5,28.1,24.8,24.0,21.8,17.0,86,76,63,29.87,29.74,18,11,24,0.00
2013-3-12,29.9,25.6,22.7,17.0,15.1,10.0,79,65,46,30.15,29.83,20,12,27,0.00
2013-3-13,33.2,23.9,14.1,17.0,12.2,10.0,85,63,42,30.38,30.15,11,7,0,0.00
2013-3-14,42.8,32.8,25.1,26.0,21.9,0.0,92,70,60,30.26,30.02,13,5,0,0.00
2013-3-15,35.4,31.8,23.2,30.0,27.5,24.0,92,83,74,30.02,29.82,13,7,19,0.00
2013-3-16,25.1,20.5,14.2,23.0,13.4,5.0,86,69,49,30.22,29.89,14,11,19,0.00
2013-3-17,30.0,19.5,7.5,15.0,5.6,0.0,66,56,45,30.26,29.90,17,12,0,0.00
2013-3-18,30.9,24.0,13.0,28.0,16.0,0.0,100,75,67,29.88,29.60,25,17,33,0.00
2013-3-19,23.5,14.2,7.9,6.0,2.5,0.0,78,60,44,30.18,29.80,24,16,31,0.00
2013-3-20,20.6,13.1,6.5,3.0,0.2,-4.0,66,56,44,30.21,30.11,23,14,28,0.00
2013-3-21,28.0,17.8,8.0,10.0,5.0,0.0,77,58,42,30.13,30.03,8,3,0,0.00
2013-3-22,36.7,25.8,14.0,17.0,10.3,6.0,72,56,37,30.09,30.03,10,3,0,0.00
2013-3-23,42.0,30.9,20.9,19.0,16.0,14.0,79,58,37,30.14,30.07,10,3,0,0.00
2013-3-24,32.7,30.5,28.6,24.0,21.4,17.0,80,70,59,30.11,29.98,14,8,20,0.00
2013-3-25,37.5,30.6,22.7,21.0,17.9,0.0,73,58,47,30.21,30.03,16,10,20,0.00
2013-3-26,41.7,34.2,26.9,21.0,20.1,19.0,74,61,47,30.29,30.21,10,5,0,0.00
2013-3-27,44.9,36.6,28.2,21.0,18.5,15.0,85,58,33,30.34,30.29,5,2,0,0.00
2013-3-28,46.1,37.4,28.1,26.0,21.3,0.0,79,59,41,30.35,30.28,9,3,0,0.00
2013-3-29,51.0,42.0,35.4,35.0,29.0,23.0,80,67,53,30.29,30.10,11,6,0,0.00
2013-3-30,54.2,44.7,38.4,42.0,36.3,0.0,93,73,54,30.08,29.84,13,8,16,0.00
2013-3-31,41.5,34.7,24.4,33.0,23.1,10.0,100,64,32,30.07,29.80,25,14,36,0.00
2013-4-1,33.8,27.4,17.7,17.0,11.9,8.0,73,55,34,30.25,30.07,17,12,25,0.00
2013-4-2,35.8,28.9,20.3,15.0,13.1,10.0,85,55,32,30.35,30.25,14,8,20,0.00
2013-4-3,48.4,36.7,25.2,30.0,18.8,0.0,73,53,37,30.40,30.09,17,8,24,0.00
2013-4-4,47.9,43.2,39.9,33.0,29.1,26.0,75,57,37,30.08,30.00,17,12,29,0.00
2013-4-5,48.7,38.1,32.1,33.0,25.9,15.0,100,70,35,30.24,29.94,18,12,23,0.00
2013-4-6,55.4,41.9,36.3,42.0,33.7,26.0,93,73,52,29.94,29.50,19,13,28,0.00
2013-4-7,49.5,41.5,35.0,39.0,32.1,0.0,86,72,61,29.94,29.73,13,6,0,0.00
2013-4-8,47.4,42.0,39.8,42.0,39.9,37.0,100,87,75,30.03,29.68,14,7,21,0.00
2013-4-9,44.3,37.7,32.8,37.0,31.9,26.0,93,78,56,30.17,29.99,26,15,33,0.00
2013-4-10,40.0,35.8,30.1,30.0,24.8,21.0,100,67,51,30.20,29.91,24,13,33,0.00
2013-4-11,37.3,33.3,30.1,33.0,29.9,24.0,100,85,64,29.94,29.68,17,12,28,0.00
2013-4-12,38.6,31.6,27.4,30.0,27.0,26.0,100,85,69,29.83,29.67,12,8,19,0.00
2013-4-13,39.0,33.8,29.1,28.0,25.0,23.0,100,75,59,29.96,29.83,11,6,0,0.00
2013-4-14,36.4,32.7,30.5,35.0,28.0,23.0,100,82,64,29.96,29.49,20,14,31,0.00
2013-4-15,42.0,37.3,33.2,35.0,27.3,0.0,93,69,64,29.95,29.53,21,13,34,0.00
2013-4-16,48.4,39.1,33.2,28.0,26.2,24.0,74,61,45,30.32,29.95,13,8,19,0.00
2013-4-17,42.7,38.6,32.7,37.0,29.5,26.0,100,71,60,30.31,29.91,23,10,27,0.00
2013-4-18,33.5,31.6,30.3,33.0,30.2,0.0,100,88,86,29.92,29.50,23,14,31,0.00
2013-4-19,38.5,32.5,29.2,30.0,24.2,0.0,100,72,51,29.96,29.47,24,16,35,0.00
2013-4-20,44.7,33.4,22.7,17.0,12.3,0.0,79,46,25,30.30,29.99,8,3,0,0.00
2013-4-21,50.5,41.4,33.8,46.0,35.1,15.0,100,81,47,30.31,30.02,20,13,29,0.00
2013-4-22,44.3,36.7,31.3,37.0,32.8,28.0,100,84,56,30.21,30.11,17,11,23,0.00
2013-4-23,44.9,34.4,28.2,32.0,25.3,19.0,93,69,41,30.15,30.06,17,11,27,0.00
2013-4-24,53.8,39.5,30.1,35.0,26.5,21.0,93,67,37,30.08,29.90,21,9,32,0.00
2013-4-25,57.7,42.7,32.9,33.0,27.7,23.0,93,61,32,30.20,29.97,13,9,0,0.00
2013-4-26,75.7,58.4,44.4,42.0,35.6,0.0,70,45,26,30.13,29.98,18,9,24,0.00
2013-4-27,78.3,62.3,48.0,48.0,37.5,33.0,75,45,25,30.14,29.92,13,4,17,0.00
2013-4-28,80.3,65.5,53.4,53.0,46.0,44.0,77,52,28,29.92,29.64,23,11,31,0.00
2013-4-29,78.2,62.8,50.0,57.0,46.3,33.0,93,58,33,29.82,29.58,11,6,16,0.00
2013-4-30,75.0,66.3,57.5,57.0,45.2,26.0,77,51,23,29.93,29.42,23,13,31,0.00
2013-5-1,57.0,40.9,32.9,39.0,34.3,28.0,93,76,43,30.46,29.97,18,10,23,0.00
2013-5-2,46.6,40.1,35.5,33.0,27.3,24.0,93,61,42,30.54,30.43,18,12,23,0.00
2013-5-3,37.4,33.6,31.3,33.0,29.2,24.0,93,81,55,30.42,30.16,18,13,29,0.00
2013-5-4,48.9,39.1,31.8,41.0,36.0,30.0,100,86,70,30.17,30.11,12,10,19,0.00
2013-5-5,70.2,51.0,37.5,46.0,40.2,35.0,93,68,48,30.18,30.07,11,6,19,0.00
2013-5-6,75.0,62.0,46.5,46.0,44.4,42.0,87,57,35,30.12,30.01,8,2,0,0.00
2013-5-7,83.4,68.6,55.5,51.0,45.3,39.0,82,49,27,30.07,29.96,9,3,19,0.00
2013-5-8,79.6,67.3,56.4,57.0,49.9,44.0,87,57,33,30.01,29.94,11,4,20,0.00
2013-5-9,59.5,52.5,43.1,55.0,48.0,28.0,93,80,49,30.10,29.96,19,11,29,0.00
2013-5-10,71.5,52.3,35.2,30.0,24.8,0.0,74,39,16,30.12,29.90,11,6,17,0.00
2013-5-11,58.8,47.0,40.9,44.0,25.8,19.0,66,42,27,30.17,29.88,29,18,40,0.00
2013-5-12,61.2,47.2,35.7,24.0,19.9,15.0,60,36,19,30.23,30.09,16,8,26,0.00
2013-5-13,74.6,58.7,43.4,46.0,31.7,17.0,56,40,25,30.11,29.66,21,8,27,0.00
2013-5-14,96.7,75.5,57.1,51.0,44.8,28.0,81,39,13,29.68,29.45,23,9,31,0.00
2013-5-15,83.4,68.2,57.1,46.0,44.6,39.0,62,44,27,29.92,29.64,21,10,27,0.00
2013-5-16,87.3,72.3,58.2,48.0,41.0,0.0,62,36,19,29.92,29.83,19,7,26,0.00
2013-5-17,68.4,60.2,54.8,55.0,49.3,0.0,93,72,22,30.00,29.90,21,13,21,0.00
2013-5-18,83.5,65.5,53.9,64.0,58.6,53.0,100,81,54,30.02,29.80,16,9,23,0.00
2013-5-19,83.8,69.1,62.9,66.0,62.9,62.0,93,81,54,29.81,29.57,18,9,31,0.00
2013-5-20,75.0,67.0,58.4,64.0,58.4,0.0,100,77,56,29.58,29.51,16,9,25,0.00
2013-5-21,64.2,56.4,46.4,59.0,55.3,50.0,100,90,82,29.71,29.53,11,7,25,0.00
2013-5-22,53.4,48.2,43.9,50.0,47.1,44.0,100,89,71,29.97,29.70,20,11,31,0.00
2013-5-23,69.7,53.4,43.2,42.0,34.0,28.0,81,49,27,30.34,29.97,16,11,29,0.00
2013-5-24,70.8,57.7,44.4,51.0,37.1,26.0,82,50,34,30.39,30.18,13,8,20,0.00
2013-5-25,65.1,58.0,52.2,51.0,47.4,44.0,87,70,55,30.26,30.23,17,12,25,0.00
2013-5-26,60.7,57.3,53.0,48.0,41.4,37.0,67,58,47,30.24,30.08,23,14,35,0.00
2013-5-27,61.7,57.6,53.9,55.0,50.5,46.0,93,78,63,30.06,29.84,19,11,25,0.00
2013-5-28,61.4,57.2,53.7,55.0,53.5,51.0,100,89,82,29.87,29.73,14,5,0,0.00
2013-5-29,81.5,66.7,56.3,69.0,60.9,53.0,100,86,73,29.83,29.65,16,8,20,0.00
2013-5-30,80.0,69.6,62.6,64.0,62.3,60.0,100,78,57,29.71,29.53,20,12,34,0.00
2013-5-31,80.4,69.4,61.1,62.0,55.4,0.0,93,66,36,29.57,29.51,25,12,34,0.00
2013-6-1,74.2,61.9,51.1,60.0,51.4,0.0,88,70,53,29.92,0.00,21,8,28,0.00
2013-6-2,71.6,57.1,48.3,44.0,39.7,39.0,71,52,37,30.08,29.92,16,9,27,0.00
2013-6-3,73.3,63.4,51.3,46.0,42.5,37.0,76,51,30,30.07,29.94,16,4,0,0.00
2013-6-4,68.4,61.0,53.7,53.0,49.0,44.0,87,65,52,30.09,30.00,17,12,24,0.00
2013-6-5,59.6,55.8,53.6,57.0,54.1,48.0,100,93,76,30.09,29.95,13,6,0,0.00
2013-6-6,57.2,52.6,48.8,53.0,51.0,50.0,100,90,82,30.04,29.97,11,8,25,0.00
2013-6-7,68.1,58.3,51.8,53.0,50.8,50.0,93,77,55,30.06,29.94,6,3,0,0.00
2013-6-8,74.9,65.9,57.3,55.0,52.3,51.0,87,67,49,29.94,29.89,12,6,0,0.00
2013-6-9,73.5,60.0,55.2,60.0,56.9,53.0,93,86,67,29.91,29.77,19,12,27,0.00
2013-6-10,87.3,68.2,58.9,62.0,60.4,59.0,100,81,57,29.86,29.80,6,2,0,0.00
2013-6-11,78.6,69.3,60.0,66.0,62.0,57.0,93,79,61,29.91,29.82,9,3,21,0.00
2013-6-12,77.1,67.2,58.9,66.0,60.2,0.0,100,79,52,29.89,29.77,18,8,28,0.00
2013-6-13,82.2,69.5,57.2,55.0,51.6,48.0,72,53,41,30.10,29.89,16,8,19,0.00
2013-6-14,82.3,71.5,60.9,60.0,55.8,50.0,77,61,47,30.09,29.88,19,11,25,0.00
2013-6-15,80.6,70.8,62.0,68.0,63.1,60.0,93,78,60,29.92,29.85,14,5,24,0.00
2013-6-16,89.0,72.8,58.7,62.0,53.7,44.0,93,58,25,29.93,29.85,20,5,31,0.00
2013-6-17,83.9,73.2,63.5,57.0,55.2,53.0,82,57,39,30.01,29.87,13,7,21,0.00
2013-6-18,83.1,68.0,54.6,59.0,54.0,50.0,77,65,49,30.10,30.02,11,7,20,0.00
2013-6-19,93.3,75.9,62.5,60.0,57.1,55.0,77,59,37,30.07,29.95,11,7,16,0.00
2013-6-20,96.5,81.8,69.7,64.0,61.2,59.0,69,54,35,30.01,29.90,19,10,26,0.00
2013-6-21,82.8,72.8,62.2,69.0,64.3,62.0,100,76,51,30.04,29.75,31,10,55,0.00
2013-6-22,85.8,72.7,64.7,69.0,64.9,0.0,100,79,65,30.01,29.85,21,6,26,0.00
2013-6-23,89.6,76.2,67.8,69.0,66.3,62.0,94,74,54,29.88,29.71,18,12,32,0.00
2013-6-24,87.2,76.1,67.0,69.0,65.4,64.0,93,76,61,29.91,29.82,20,4,26,0.00
2013-6-25,93.7,78.5,65.3,73.0,67.1,62.0,93,76,61,29.85,29.72,12,7,20,0.00
2013-6-26,92.8,82.5,74.5,73.0,70.0,64.0,94,75,48,29.81,29.68,19,8,21,0.00
2013-6-27,89.0,80.2,71.9,66.0,59.7,53.0,73,53,31,29.82,29.79,26,10,33,0.00
2013-6-28,79.0,71.9,65.0,64.0,57.9,0.0,88,63,50,29.81,29.76,21,14,35,0.00
2013-6-29,79.8,68.6,60.2,62.0,56.8,48.0,100,68,38,29.98,29.76,18,12,26,0.00
2013-6-30,86.7,71.0,57.4,55.0,50.9,44.0,82,52,31,30.11,29.98,14,7,27,0.00
2013-7-1,87.3,75.9,62.8,60.0,51.9,0.0,82,49,32,30.19,30.11,13,5,19,0.00
2013-7-2,87.2,74.1,60.6,53.0,51.4,48.0,67,48,34,30.17,30.06,11,6,17,0.00
2013-7-3,86.4,76.0,62.2,57.0,52.0,44.0,82,49,26,30.08,29.96,10,3,0,0.00
2013-7-4,94.2,79.3,66.3,60.0,55.1,51.0,72,47,27,29.98,29.87,18,8,24,0.00
2013-7-5,93.8,81.7,70.7,62.0,58.6,57.0,56,47,35,29.91,29.82,18,12,27,0.00
2013-7-6,98.6,82.3,75.0,66.0,61.4,60.0,61,53,40,29.89,29.81,14,10,19,0.00
2013-7-7,96.3,84.3,71.8,71.0,65.7,62.0,83,57,43,29.87,29.83,14,6,25,0.00
2013-7-8,92.2,75.1,64.5,69.0,66.5,64.0,94,74,46,30.00,29.87,9,6,21,0.00
2013-7-9,92.4,79.6,68.9,71.0,66.8,0.0,94,70,55,29.98,29.76,23,12,33,0.00
2013-7-10,84.0,72.9,62.2,64.0,55.0,50.0,77,54,36,30.05,29.90,17,11,26,0.00
2013-7-11,92.8,77.1,64.0,60.0,56.0,50.0,88,55,28,30.12,29.99,14,5,20,0.00
2013-7-12,92.6,79.7,68.8,60.0,58.1,55.0,72,49,35,30.03,29.92,23,13,29,0.00
2013-7-13,81.8,74.3,65.2,69.0,63.2,57.0,100,69,47,30.06,29.96,17,10,27,0.00
2013-7-14,90.1,78.2,70.2,66.0,63.1,60.0,78,63,45,30.18,30.06,10,7,16,0.00
2013-7-15,99.6,82.4,70.4,69.0,65.0,62.0,83,63,43,30.25,30.17,10,6,0,0.00
2013-7-16,98.6,87.0,75.8,71.0,69.9,66.0,88,63,43,30.22,30.18,12,8,18,0.00
2013-7-17,99.6,88.3,77.3,71.0,69.2,66.0,78,59,41,30.26,30.13,14,7,20,0.00
2013-7-18,98.4,88.4,78.7,71.0,66.3,0.0,74,54,41,30.13,29.78,21,11,31,0.00
2013-7-19,85.6,81.6,76.9,71.0,62.2,0.0,74,54,37,29.89,29.73,16,11,25,0.00
2013-7-20,83.6,73.7,67.3,62.0,59.6,55.0,88,63,44,29.96,29.88,11,6,25,0.00
2013-7-21,85.0,71.0,57.4,68.0,58.6,0.0,93,68,55,29.97,29.81,12,8,0,0.00
2013-7-22,87.7,75.7,66.9,69.0,63.7,55.0,93,69,42,29.83,29.68,20,11,26,0.00
2013-7-23,80.5,68.3,60.9,55.0,52.5,51.0,77,57,44,30.02,29.83,14,8,21,0.00
2013-7-24,87.3,70.5,61.8,60.0,53.9,51.0,73,61,50,30.09,29.98,8,4,0,0.00
2013-7-25,84.3,75.6,65.2,66.0,59.7,53.0,88,62,37,29.99,29.91,16,6,20,0.00
2013-7-26,74.9,64.6,56.4,64.0,53.9,0.0,88,67,53,30.08,29.91,21,13,31,0.00
2013-7-27,61.6,56.1,52.1,51.0,47.0,44.0,82,68,48,30.08,29.94,21,11,33,0.00
2013-7-28,77.0,60.8,50.8,53.0,48.1,44.0,76,62,43,30.06,29.97,13,8,19,0.00
2013-7-29,82.8,67.5,56.6,55.0,53.0,51.0,87,65,39,30.14,30.06,10,4,17,0.00
2013-7-30,73.8,67.9,61.9,64.0,60.4,55.0,88,76,60,30.11,30.07,8,4,0,0.00
2013-7-31,81.7,70.9,63.7,64.0,59.2,48.0,93,71,38,30.08,29.99,20,6,24,0.00
2013-8-1,87.1,72.5,58.7,57.0,52.5,48.0,82,53,32,30.04,29.87,10,3,0,0.00
2013-8-2,79.2,70.8,61.2,60.0,52.3,46.0,82,53,31,30.04,29.86,13,7,19,0.00
2013-8-3,79.2,68.2,56.5,53.0,50.0,46.0,87,54,33,30.18,30.04,12,4,16,0.00
2013-8-4,80.9,68.0,57.0,55.0,52.1,48.0,82,62,46,30.24,30.06,6,4,0,0.00
2013-8-5,87.5,70.2,60.2,66.0,59.9,0.0,93,74,61,30.06,29.80,9,5,0,0.00
2013-8-6,86.7,70.5,61.2,64.0,60.3,55.0,93,74,48,29.85,29.70,16,5,41,0.00
2013-8-7,78.3,67.4,61.1,62.0,54.3,48.0,100,65,38,30.03,29.77,14,8,21,0.00
2013-8-8,78.6,68.8,60.8,60.0,55.2,48.0,82,66,49,30.06,29.99,9,3,0,0.00
2013-8-9,76.6,68.4,60.3,60.0,54.9,50.0,93,65,43,30.12,30.00,16,7,21,0.00
2013-8-10,82.2,69.1,60.3,55.0,51.7,48.0,72,55,40,30.19,30.10,9,4,0,0.00
2013-8-11,80.7,72.2,64.7,64.0,59.8,53.0,88,71,56,30.10,30.00,6,3,0,0.00
2013-8-12,80.2,71.1,62.0,64.0,56.3,51.0,93,61,36,30.06,30.00,16,8,19,0.00
2013-8-13,77.2,67.1,56.9,55.0,48.3,41.0,87,54,33,30.20,30.06,11,5,18,0.00
2013-8-14,75.8,70.9,59.0,53.0,49.8,46.0,87,49,37,30.20,29.21,18,5,18,0.00
2013-8-15,77.9,69.1,59.1,57.0,53.6,50.0,79,59,43,29.26,29.19,15,3,15,0.00
2013-8-16,79.9,71.9,62.2,58.0,54.2,50.0,81,56,38,29.31,29.25,16,3,16,0.00
2013-8-17,83.1,72.4,61.2,57.0,54.6,51.0,81,56,35,29.33,29.22,17,2,17,0.00
2013-8-18,82.8,73.5,63.5,60.0,56.1,53.0,76,56,39,29.27,29.13,22,2,22,0.00
2013-8-19,88.3,76.7,68.7,68.0,62.8,57.0,74,63,47,29.15,29.02,16,2,16,0.00
2013-8-20,91.7,80.7,71.5,72.0,68.5,65.0,82,68,51,29.05,28.98,16,2,16,0.00
2013-8-21,86.0,80.0,74.3,74.0,69.8,61.0,86,72,51,29.13,28.96,13,3,13,0.00
2013-8-22,85.5,76.6,67.1,62.0,51.2,47.0,63,43,28,29.26,29.12,18,4,18,0.00
2013-8-23,88.8,75.8,64.0,67.0,57.1,47.0,77,54,42,29.27,29.15,16,3,16,0.00
2013-8-24,91.2,80.0,70.7,72.0,68.1,63.0,81,69,52,29.20,29.06,14,3,21,0.00
2013-8-25,95.2,85.9,78.6,74.0,71.3,69.0,75,63,48,29.14,29.06,22,3,22,0.00
2013-8-26,97.0,86.7,78.8,75.0,72.9,71.0,83,66,47,29.12,28.97,17,4,17,0.00
2013-8-27,93.6,84.5,78.3,76.0,72.9,70.0,80,69,53,29.05,28.92,16,3,16,0.00
2013-8-28,91.1,81.0,71.7,72.0,69.2,64.0,93,70,42,29.14,29.04,13,3,13,0.00
2013-8-29,93.6,82.4,73.4,76.0,71.3,66.0,95,72,44,29.13,28.97,14,3,14,0.44
2013-8-30,83.1,77.1,70.7,72.0,65.9,61.0,87,70,53,29.07,28.95,19,5,19,0.00
2013-8-31,90.7,75.5,65.7,67.0,64.1,61.0,89,70,44,29.03,28.83,28,3,28,0.08
2013-9-1,74.4,68.5,61.6,64.0,58.3,52.0,84,71,62,29.11,28.85,22,7,22,0.00
2013-9-2,67.3,60.2,54.8,53.0,50.5,49.0,86,71,56,29.23,29.10,17,4,17,0.00
2013-9-3,76.3,64.7,53.9,58.0,53.7,50.0,90,70,47,29.23,29.12,13,3,13,0.00
2013-9-4,86.1,72.9,62.3,63.0,59.8,56.0,87,66,45,29.28,29.13,13,2,13,0.00
2013-9-5,84.3,72.4,62.2,66.0,58.4,51.0,81,63,45,29.35,29.23,14,4,14,0.00
2013-9-6,91.0,79.6,69.6,69.0,65.1,59.0,92,66,38,29.23,29.00,22,3,22,0.00
2013-9-7,91.0,80.6,71.1,69.0,65.6,60.0,83,62,41,29.15,28.98,17,4,17,0.00
2013-9-8,75.4,69.9,64.8,65.0,59.2,53.0,82,70,60,29.18,29.02,18,5,18,0.00
2013-9-9,92.3,78.3,69.3,73.0,68.4,64.0,92,74,48,29.02,28.76,19,5,19,0.00
2013-9-10,80.0,74.2,69.5,72.0,64.1,59.0,86,72,57,29.11,28.88,18,5,18,0.00
2013-9-11,82.6,74.5,65.8,62.0,55.8,47.0,85,55,30,29.18,29.11,22,5,22,0.00
2013-9-12,71.1,64.5,56.3,53.0,47.8,42.0,82,57,37,29.35,29.18,23,7,23,0.00
2013-9-13,71.4,59.9,50.3,47.0,44.7,41.0,83,59,37,29.41,29.21,9,3,10,0.00
2013-9-14,71.7,60.7,53.1,56.0,47.9,44.0,94,65,41,29.22,29.02,12,2,12,0.11
2013-9-15,62.7,57.6,51.3,56.0,51.6,44.0,97,81,68,29.44,29.02,12,4,12,0.00
2013-9-16,67.0,55.0,44.1,45.0,41.0,33.0,89,63,31,29.53,29.37,13,4,13,0.00
2013-9-17,67.5,57.7,50.1,57.0,49.7,41.0,96,76,61,29.37,29.07,14,4,18,0.02
2013-9-18,72.8,66.2,58.7,70.0,64.2,57.0,99,94,86,29.08,28.83,12,4,12,0.14
2013-9-19,77.0,71.0,65.6,72.0,66.6,58.0,96,87,73,28.93,28.78,34,5,34,0.34
2013-9-20,65.4,58.2,51.7,58.0,51.6,46.0,89,80,55,29.06,28.91,20,7,20,0.03
2013-9-21,62.7,54.3,47.8,49.0,46.4,44.0,92,76,54,29.12,29.03,13,4,13,0.00
2013-9-22,72.3,59.6,49.0,55.0,49.8,43.0,86,71,55,29.11,28.98,20,6,20,0.00
2013-9-23,73.8,63.2,53.9,54.0,51.5,48.0,84,67,46,29.09,29.00,18,5,18,0.00
2013-9-24,76.0,63.7,53.8,54.0,51.2,48.0,84,66,41,29.11,29.04,15,4,15,0.00
2013-9-25,74.3,64.1,55.0,54.0,52.0,49.0,88,67,49,29.11,29.00,16,4,16,0.00
2013-9-26,82.4,68.2,56.5,61.0,56.1,50.0,82,67,48,29.07,28.96,18,6,18,0.00
2013-9-27,84.3,71.1,66.0,65.0,60.9,59.0,79,71,47,29.06,28.93,20,4,20,0.00
2013-9-28,73.1,65.4,51.9,62.0,56.2,45.0,92,72,63,29.06,28.78,24,4,24,0.06
2013-9-29,76.9,59.9,48.3,49.0,45.6,43.0,85,62,32,29.09,28.92,13,2,13,0.00
2013-9-30,80.6,67.4,58.7,54.0,49.8,46.0,68,54,37,28.93,28.73,11,3,11,0.00
2013-10-1,73.7,68.5,59.1,53.0,42.9,31.0,64,42,21,29.11,28.72,22,6,22,0.00
2013-10-2,75.0,61.5,51.1,56.0,43.5,37.0,94,56,27,29.18,28.97,26,4,26,0.91
2013-10-3,58.9,57.7,57.1,56.0,55.7,55.0,96,94,92,29.00,28.93,16,6,16,0.00
2013-10-4,57.2,57.2,57.2,55.0,55.0,55.0,93,93,93,29.06,29.06,9,7,9,0.00
2013-10-7,57.5,57.5,57.5,41.0,41.0,41.0,55,55,55,29.11,29.11,3,3,3,0.00
2013-10-8,77.2,67.9,51.1,49.0,46.3,41.0,75,48,33,29.10,28.95,15,3,15,0.00
2013-10-9,77.3,66.9,59.1,53.0,49.5,47.0,69,55,38,29.18,29.05,17,3,17,0.00
2013-10-10,78.6,64.4,53.8,54.0,49.1,45.0,73,59,37,29.17,29.01,19,5,19,0.00
2013-10-11,73.6,66.0,57.8,59.0,54.0,50.0,87,67,52,29.02,28.75,29,6,31,0.10
2013-10-12,60.8,52.0,49.0,56.0,43.1,39.0,86,73,61,29.28,28.83,34,7,34,0.01
2013-10-13,60.4,50.5,40.5,40.0,36.3,32.0,87,61,35,29.54,29.28,16,3,16,0.00
2013-10-14,54.5,50.2,44.9,47.0,38.5,35.0,91,65,51,29.52,29.09,23,5,23,0.43
2013-10-15,54.4,49.6,45.8,53.0,48.2,45.0,98,95,91,29.10,28.80,24,6,24,0.91
2013-10-16,53.5,46.9,42.8,45.0,40.0,35.0,98,79,51,29.08,28.93,21,5,22,0.02
2013-10-17,57.3,46.8,41.8,46.0,39.3,36.0,95,76,48,29.00,28.89,19,4,19,0.35
2013-10-18,51.4,44.2,38.8,41.0,34.7,28.0,95,71,41,29.10,28.95,22,6,22,0.10
2013-10-19,44.6,40.3,36.8,39.0,35.9,32.0,91,83,72,28.95,28.80,16,4,17,0.11
2013-10-20,44.6,37.4,33.6,39.0,34.6,31.0,95,89,80,28.97,28.73,22,4,22,0.13
2013-10-21,38.2,35.1,32.9,33.0,24.6,21.0,84,64,55,29.06,28.97,24,7,25,0.00
2013-10-22,39.9,34.6,28.8,32.0,28.8,24.0,90,79,65,29.13,29.04,16,4,16,0.00
2013-10-23,37.2,34.9,33.0,32.0,26.1,21.0,89,70,55,29.20,29.09,19,6,20,0.00
2013-10-24,41.3,37.3,32.8,32.0,27.3,23.0,80,65,55,29.40,29.19,22,5,22,0.00
2013-10-25,57.5,45.2,30.6,42.0,34.1,26.0,89,66,51,29.41,28.90,24,5,24,0.00
2013-10-26,53.0,42.7,36.5,41.0,30.1,28.0,74,60,50,29.21,28.89,26,8,27,0.00
2013-10-27,56.1,43.2,32.1,33.0,30.4,28.0,82,61,41,29.24,28.94,21,4,21,0.00
2013-10-28,42.9,37.0,31.8,31.0,24.4,21.0,82,60,40,29.54,29.24,18,4,18,0.00
2013-10-29,40.8,37.1,31.4,37.0,29.0,23.0,91,70,61,29.49,29.19,13,4,13,0.03
2013-10-30,50.2,44.7,38.7,50.0,43.9,37.0,100,97,91,29.19,28.79,14,3,14,0.09
2013-10-31,50.3,43.2,40.0,50.0,42.0,38.0,100,96,90,28.79,28.52,18,5,18,0.02
2013-11-1,50.4,43.0,39.7,40.0,36.7,32.0,93,79,57,28.97,28.52,20,6,20,0.00
2013-11-2,48.4,41.0,33.3,36.0,31.7,28.0,86,69,47,29.20,28.96,20,4,20,0.00
2013-11-3,54.2,45.6,37.2,36.0,32.8,29.0,78,61,44,29.22,29.01,30,6,32,0.01
2013-11-4,48.7,45.8,38.0,44.0,37.9,35.0,92,74,58,29.25,28.96,22,4,22,0.17
2013-11-5,45.1,37.6,32.4,36.0,31.3,26.0,97,79,49,29.34,29.11,18,3,18,0.03
2013-11-6,32.7,32.5,32.4,32.0,31.8,31.0,97,97,96,29.12,29.11,11,8,11,0.00
2013-11-7,35.7,33.6,30.7,31.0,29.4,28.0,88,83,79,29.31,29.27,15,4,15,0.01
2013-11-8,45.3,39.5,27.2,39.0,31.7,26.0,94,73,56,29.27,28.71,18,6,18,0.00
2013-11-9,44.8,42.1,36.5,39.0,36.0,28.0,84,78,59,29.26,28.73,20,9,20,0.00
2013-11-10,39.7,37.7,35.1,32.0,29.2,26.0,74,70,67,29.41,29.20,16,5,16,0.00
2013-11-11,36.6,30.6,17.2,32.0,22.6,11.0,80,70,55,29.73,29.22,17,10,17,0.00
2013-11-12,22.2,22.2,22.2,8.0,8.0,8.0,52,52,52,29.78,29.78,1,1,1,0.00
2013-11-14,51.7,45.3,38.2,38.0,35.7,31.0,80,69,60,28.96,28.87,15,3,15,0.00
2013-11-15,57.2,44.5,34.2,41.0,36.0,31.0,90,73,49,28.97,28.76,12,2,12,0.00
2013-11-16,50.0,45.5,42.3,48.0,42.6,35.0,97,90,73,28.77,28.37,16,3,16,0.10
2013-11-17,45.9,40.1,32.0,44.0,35.9,24.0,96,84,74,28.92,28.43,30,9,30,0.01
2013-11-18,34.5,30.2,26.3,26.0,22.6,21.0,79,70,59,29.34,28.91,30,7,30,0.00
2013-11-19,45.8,35.9,24.5,32.0,26.7,21.0,85,68,51,29.34,29.03,23,5,23,0.00
2013-11-20,43.9,41.2,36.8,35.0,30.8,28.0,92,67,52,29.14,29.00,18,4,18,0.00
2013-11-21,38.5,31.3,24.5,38.0,28.1,18.0,96,87,69,29.57,29.14,23,7,23,0.00
2013-11-22,33.7,23.1,12.9,18.0,12.3,4.0,80,62,34,29.67,29.52,26,7,26,0.00
2013-11-23,17.4,11.9,7.0,8.0,3.7,0.0,80,65,43,29.87,29.67,19,6,19,0.00
2013-11-24,31.9,21.2,9.8,16.0,10.4,4.0,80,61,47,29.75,29.06,21,3,24,0.00
2013-11-25,37.9,33.3,28.1,29.0,23.9,16.0,78,67,58,29.17,28.98,28,8,28,0.00
2013-11-26,29.7,20.4,14.1,21.0,9.8,4.0,70,58,48,29.43,29.15,30,9,30,0.00
2013-11-27,25.3,18.3,9.9,14.0,9.6,4.0,82,65,52,29.43,29.14,15,3,15,0.00
2013-11-28,25.7,22.6,17.4,16.0,13.3,11.0,74,64,55,29.56,29.13,20,4,20,0.00
2013-11-29,33.3,24.9,16.3,23.0,17.4,11.0,80,70,55,29.57,29.22,16,3,16,0.00
2013-11-30,38.9,32.8,28.5,28.0,25.1,21.0,82,72,62,29.25,29.11,12,3,13,0.00
2013-12-1,34.4,29.1,21.5,26.0,23.9,18.0,92,79,69,29.27,29.00,10,3,10,0.00
2013-12-2,36.5,32.8,29.5,33.0,29.3,26.0,96,86,80,29.01,28.69,17,5,17,0.03
2013-12-3,35.5,34.3,31.4,35.0,33.5,29.0,99,97,95,28.89,28.69,14,4,14,0.07
2013-12-4,31.4,29.9,28.3,31.0,29.0,28.0,98,97,96,28.88,28.76,15,5,15,0.00
2013-12-5,8.2,8.2,8.2,0.0,0.0,0.0,72,72,72,29.16,29.16,7,7,7,0.00